Time;durP1;ratioP1;P1;durP2;ratioP2;P2;SDS_P1;SDS_P2;PMS_P1;PMS_P2;Temp;Humidity;BMP_temperature;BMP_pressure;BME280_temperature;BME280_humidity;BME280_pressure;Samples;Min_cycle;Max_cycle;Signal;HPM_P1;HPM_P2
2021/09/21 00:01:37;;;;;;;;;44.67;33.00;;;;;;;;5096550;27;8817;-77
2021/09/21 00:04:02;;;;;;;;;44.00;34.75;;;;;;;;5092885;27;12609;-77
2021/09/21 00:06:27;;;;;;;;;38.00;26.00;;;;;;;;4068928;27;8904256;-76
2021/09/21 00:08:53;;;;;;;;;46.67;32.33;;;;;;;;4866426;27;1716833;-77
2021/09/21 00:11:18;;;;;;;;;42.25;34.00;;;;;;;;4913164;27;3543858;-76
2021/09/21 00:13:44;;;;;;;;;42.75;31.50;;;;;;;;5085019;27;28558;-77
2021/09/21 00:16:10;;;;;;;;;36.00;29.75;;;;;;;;5056898;27;784510;-77
2021/09/21 00:21:10;;;;;;;;;38.25;30.50;;;;;;;;5367974;22;367737;-77
2021/09/21 00:23:35;;;;;;;;;38.50;29.25;;;;;;;;4815838;28;6553799;-77
2021/09/21 00:26:01;;;;;;;;;34.50;28.75;;;;;;;;5050241;27;17467;-77
2021/09/21 00:28:26;;;;;;;;;41.50;32.00;;;;;;;;5036470;28;191026;-77
2021/09/21 00:30:53;;;;;;;;;38.50;32.00;;;;;;;;5041846;27;29410;-77
2021/09/21 00:33:20;;;;;;;;;34.25;28.75;;;;;;;;5045967;28;204225;-76
2021/09/21 00:35:47;;;;;;;;;30.00;27.75;;;;;;;;5050623;28;11219;-76
2021/09/21 00:38:13;;;;;;;;;33.75;29.00;;;;;;;;5049012;28;8818;-76
2021/09/21 00:40:38;;;;;;;;;37.50;31.50;;;;;;;;4177282;28;21150170;-77
2021/09/21 00:43:04;;;;;;;;;35.75;27.50;;;;;;;;5031215;28;29651;-77
2021/09/21 00:45:30;;;;;;;;;31.00;25.25;;;;;;;;5043552;28;28611;-76
2021/09/21 00:47:55;;;;;;;;;28.50;28.25;;;;;;;;5048920;28;9983;-77
2021/09/21 00:50:21;;;;;;;;;31.50;27.00;;;;;;;;5050008;28;8840;-76
2021/09/21 00:52:49;;;;;;;;;32.00;26.50;;;;;;;;5028859;27;283882;-77
2021/09/21 00:55:16;;;;;;;;;33.25;28.00;;;;;;;;5014270;28;45654;-77
2021/09/21 00:57:42;;;;;;;;;34.50;28.00;;;;;;;;5017699;28;47039;-77
2021/09/21 01:00:08;;;;;;;;;39.00;27.75;;;;;;;;5018812;28;46089;-77
2021/09/21 01:02:33;;;;;;;;;38.50;29.00;;;;;;;;5012649;27;45662;-77
2021/09/21 01:04:59;;;;;;;;;34.00;27.50;;;;;;;;5012181;28;46968;-76
2021/09/21 01:07:24;;;;;;;;;31.00;28.50;;;;;;;;5005298;28;46346;-77
2021/09/21 01:09:58;;;;;;;;;37.00;28.50;;;;;;;;5000959;28;46498;-78
2021/09/21 01:12:24;;;;;;;;;34.75;28.25;;;;;;;;5002706;28;46887;-76
2021/09/21 01:14:49;;;;;;;;;29.67;25.00;;;;;;;;4998159;28;47391;-76
2021/09/21 01:17:14;;;;;;;;;32.25;25.75;;;;;;;;4998741;28;46078;-76
2021/09/21 01:19:39;;;;;;;;;38.33;27.00;;;;;;;;5000939;28;46180;-77
2021/09/21 01:22:05;;;;;;;;;34.33;27.00;;;;;;;;5002231;28;47630;-76
2021/09/21 01:24:32;;;;;;;;;38.25;31.00;;;;;;;;4999554;28;47375;-77
2021/09/21 01:26:57;;;;;;;;;35.00;25.50;;;;;;;;4998830;28;47637;-76
2021/09/21 01:29:22;;;;;;;;;33.75;31.00;;;;;;;;4999752;28;46478;-76
2021/09/21 01:31:47;;;;;;;;;37.33;30.00;;;;;;;;5006528;28;47170;-76
2021/09/21 01:34:17;;;;;;;;;33.33;27.00;;;;;;;;5002069;28;47186;-77
2021/09/21 01:36:42;;;;;;;;;36.25;29.25;;;;;;;;5002913;28;46839;-76
2021/09/21 01:39:07;;;;;;;;;38.33;30.33;;;;;;;;5000549;28;45757;-77
2021/09/21 01:41:32;;;;;;;;;38.33;29.00;;;;;;;;4999015;28;47666;-76
2021/09/21 01:43:58;;;;;;;;;36.33;30.00;;;;;;;;4999513;28;46121;-77
2021/09/21 01:46:23;;;;;;;;;45.67;31.00;;;;;;;;5001462;28;46198;-77
2021/09/21 01:48:49;;;;;;;;;34.25;30.00;;;;;;;;5002971;28;45741;-76
2021/09/21 01:51:42;;;;;;;;;34.50;31.00;;;;;;;;5000244;28;45819;-76
2021/09/21 01:54:28;;;;;;;;;38.00;29.50;;;;;;;;5003927;28;46385;-76
2021/09/21 01:59:37;;;;;;;;;37.25;29.50;;;;;;;;5002959;28;45842;-77
2021/09/21 02:02:03;;;;;;;;;45.50;30.50;;;;;;;;4999463;28;46270;-77
2021/09/21 02:04:28;;;;;;;;;37.67;31.00;;;;;;;;4998232;28;46178;-77
2021/09/21 02:06:54;;;;;;;;;41.33;35.00;;;;;;;;4999518;28;45787;-76
2021/09/21 02:09:19;;;;;;;;;36.75;31.00;;;;;;;;4996742;28;45832;-77
2021/09/21 02:11:45;;;;;;;;;34.00;26.50;;;;;;;;4998174;28;47543;-76
2021/09/21 02:14:13;;;;;;;;;37.25;30.75;;;;;;;;5001265;28;45980;-77
2021/09/21 02:16:38;;;;;;;;;40.25;31.75;;;;;;;;4986683;28;463670;-77
2021/09/21 02:19:04;;;;;;;;;34.50;31.00;;;;;;;;5000534;28;46967;-76
2021/09/21 02:21:29;;;;;;;;;40.25;33.00;;;;;;;;4998530;28;47677;-80
2021/09/21 02:23:56;;;;;;;;;42.75;35.25;;;;;;;;4996391;28;47257;-80
2021/09/21 02:26:21;;;;;;;;;47.50;33.75;;;;;;;;4998502;28;45823;-78
2021/09/21 02:28:47;;;;;;;;;36.25;28.00;;;;;;;;4985330;28;557264;-78
2021/09/21 02:31:12;;;;;;;;;46.25;34.00;;;;;;;;5000234;28;46791;-80
2021/09/21 02:33:38;;;;;;;;;37.25;32.50;;;;;;;;4996715;28;46532;-78
2021/09/21 02:36:05;;;;;;;;;38.50;29.75;;;;;;;;4996050;28;45675;-79
2021/09/21 02:38:31;;;;;;;;;42.25;34.00;;;;;;;;5012479;28;45509;-79
2021/09/21 02:40:56;;;;;;;;;39.75;32.50;;;;;;;;5003059;28;46056;-78
2021/09/21 02:43:21;;;;;;;;;40.33;31.67;;;;;;;;4994362;28;45663;-80
2021/09/21 02:45:46;;;;;;;;;42.00;32.00;;;;;;;;4996440;28;47630;-79
2021/09/21 02:48:12;;;;;;;;;44.50;33.75;;;;;;;;4997686;28;46818;-78
2021/09/21 02:50:37;;;;;;;;;39.00;32.33;;;;;;;;4998246;28;46629;-78
2021/09/21 02:53:02;;;;;;;;;40.67;33.33;;;;;;;;4998080;28;46328;-79
2021/09/21 02:55:27;;;;;;;;;38.00;31.50;;;;;;;;4996058;28;46900;-80
2021/09/21 02:57:53;;;;;;;;;46.50;35.00;;;;;;;;4999500;28;48095;-78
2021/09/21 03:00:23;;;;;;;;;40.50;31.00;;;;;;;;4998691;28;46782;-78
2021/09/21 03:02:49;;;;;;;;;50.25;36.25;;;;;;;;4992054;28;45901;-77
2021/09/21 03:05:19;;;;;;;;;42.25;33.25;;;;;;;;4997483;28;46068;-79
2021/09/21 03:07:48;;;;;;;;;46.75;34.50;;;;;;;;4999754;28;47542;-80
2021/09/21 03:18:02;;;;;;;;;51.75;36.75;;;;;;;;4998910;28;45869;-77
2021/09/21 03:20:28;;;;;;;;;44.00;31.50;;;;;;;;4999785;28;46383;-79
2021/09/21 03:22:54;;;;;;;;;46.75;37.25;;;;;;;;4996734;28;47583;-78
2021/09/21 03:25:19;;;;;;;;;38.33;31.33;;;;;;;;4997966;28;46668;-77
2021/09/21 03:27:45;;;;;;;;;50.33;36.00;;;;;;;;4993519;28;46563;-77
2021/09/21 03:30:11;;;;;;;;;45.75;36.00;;;;;;;;4994748;28;49301;-77
2021/09/21 03:32:36;;;;;;;;;45.50;35.00;;;;;;;;4991391;28;46821;-78
2021/09/21 03:35:03;;;;;;;;;37.67;32.00;;;;;;;;4989960;28;47627;-79
2021/09/21 03:37:28;;;;;;;;;49.50;35.50;;;;;;;;4995654;28;46011;-77
2021/09/21 03:39:53;;;;;;;;;41.33;35.67;;;;;;;;4993906;28;46258;-79
2021/09/21 03:42:20;;;;;;;;;41.25;33.00;;;;;;;;4992944;28;46163;-78
2021/09/21 03:44:45;;;;;;;;;46.00;32.75;;;;;;;;4990321;28;47209;-78
2021/09/21 03:47:10;;;;;;;;;51.75;33.75;;;;;;;;4997413;28;46620;-78
2021/09/21 03:49:35;;;;;;;;;49.75;36.00;;;;;;;;4994823;28;45838;-80
2021/09/21 03:52:01;;;;;;;;;54.50;35.75;;;;;;;;4522634;28;11622181;-82
2021/09/21 03:54:26;;;;;;;;;44.25;35.25;;;;;;;;4990184;28;46640;-77
2021/09/21 03:56:51;;;;;;;;;49.67;38.00;;;;;;;;4973567;28;46203;-79
2021/09/21 03:59:16;;;;;;;;;56.00;36.67;;;;;;;;4975760;28;45498;-79
2021/09/21 04:01:42;;;;;;;;;40.00;28.33;;;;;;;;4976016;28;53530;-79
2021/09/21 04:04:07;;;;;;;;;50.33;38.33;;;;;;;;4975870;28;49118;-80
2021/09/21 04:06:33;;;;;;;;;52.75;39.50;;;;;;;;4973534;28;45751;-79
2021/09/21 04:08:59;;;;;;;;;42.25;36.25;;;;;;;;4974445;28;45654;-78
2021/09/21 04:11:24;;;;;;;;;51.00;37.00;;;;;;;;4970189;28;46686;-79
2021/09/21 04:13:49;;;;;;;;;50.33;35.67;;;;;;;;4973480;28;47378;-78
2021/09/21 04:16:15;;;;;;;;;45.75;36.25;;;;;;;;4976747;28;45862;-78
2021/09/21 04:18:40;;;;;;;;;51.50;37.00;;;;;;;;4977756;28;45781;-77
2021/09/21 04:21:06;;;;;;;;;54.67;39.33;;;;;;;;4978260;28;48311;-77
2021/09/21 04:23:31;;;;;;;;;50.50;37.00;;;;;;;;4975158;28;47544;-77
2021/09/21 04:25:57;;;;;;;;;49.67;38.00;;;;;;;;4978090;28;45959;-77
2021/09/21 04:28:22;;;;;;;;;53.25;40.00;;;;;;;;4932619;28;1206003;-76
2021/09/21 04:30:51;;;;;;;;;53.00;38.25;;;;;;;;4977376;28;45735;-76
2021/09/21 04:33:16;;;;;;;;;56.75;37.00;;;;;;;;4978086;28;46464;-76
2021/09/21 04:35:42;;;;;;;;;51.25;38.00;;;;;;;;4973363;28;47094;-77
2021/09/21 04:38:11;;;;;;;;;48.50;36.50;;;;;;;;4978710;28;46281;-77
2021/09/21 04:40:37;;;;;;;;;54.75;40.00;;;;;;;;4973846;28;48244;-76
2021/09/21 04:43:02;;;;;;;;;51.25;39.00;;;;;;;;4976661;28;47381;-76
2021/09/21 04:45:27;;;;;;;;;54.75;42.00;;;;;;;;4976714;28;46183;-76
2021/09/21 04:47:53;;;;;;;;;55.33;40.33;;;;;;;;4977931;28;46668;-76
2021/09/21 04:50:18;;;;;;;;;52.00;37.33;;;;;;;;4977192;28;46087;-77
2021/09/21 04:52:43;;;;;;;;;54.50;40.00;;;;;;;;4981317;28;45564;-76
2021/09/21 04:55:08;;;;;;;;;49.33;37.33;;;;;;;;4978282;28;47477;-76
2021/09/21 04:57:34;;;;;;;;;55.50;40.50;;;;;;;;4982003;28;46146;-76
2021/09/21 04:59:59;;;;;;;;;54.00;39.50;;;;;;;;4981510;28;45751;-77
2021/09/21 05:02:24;;;;;;;;;57.00;41.75;;;;;;;;4977833;28;45620;-77
2021/09/21 05:04:50;;;;;;;;;51.33;37.67;;;;;;;;4979031;28;47070;-76
2021/09/21 05:07:15;;;;;;;;;56.00;41.25;;;;;;;;4977705;28;45961;-76
2021/09/21 05:09:40;;;;;;;;;50.25;40.50;;;;;;;;4978900;28;46090;-76
2021/09/21 05:12:05;;;;;;;;;48.67;35.00;;;;;;;;4977744;28;47822;-76
2021/09/21 05:14:32;;;;;;;;;45.50;37.50;;;;;;;;4977569;28;46166;-76
2021/09/21 05:16:57;;;;;;;;;51.00;39.50;;;;;;;;4983772;28;47282;-77
2021/09/21 05:19:23;;;;;;;;;49.75;38.75;;;;;;;;4979482;28;45850;-76
2021/09/21 05:21:48;;;;;;;;;55.67;39.33;;;;;;;;4976678;28;48288;-78
2021/09/21 05:24:13;;;;;;;;;55.00;40.00;;;;;;;;4975652;28;45578;-78
2021/09/21 05:26:38;;;;;;;;;51.33;40.67;;;;;;;;4976985;28;46061;-82
2021/09/21 05:29:04;;;;;;;;;56.00;39.50;;;;;;;;4979442;28;47320;-79
2021/09/21 05:31:29;;;;;;;;;47.00;35.75;;;;;;;;4980021;28;46655;-78
2021/09/21 05:33:54;;;;;;;;;48.00;38.00;;;;;;;;4972464;28;45942;-79
2021/09/21 05:36:20;;;;;;;;;50.00;34.00;;;;;;;;4971811;28;47533;-79
2021/09/21 05:38:45;;;;;;;;;48.33;36.67;;;;;;;;4974065;28;47520;-78
2021/09/21 05:41:10;;;;;;;;;51.00;37.33;;;;;;;;4977960;28;45781;-77
2021/09/21 05:43:35;;;;;;;;;46.33;37.00;;;;;;;;4976887;28;45569;-79
2021/09/21 05:46:00;;;;;;;;;46.75;36.50;;;;;;;;4977503;28;45612;-80
2021/09/21 05:48:26;;;;;;;;;37.50;28.25;;;;;;;;4980735;28;46240;-78
2021/09/21 05:50:51;;;;;;;;;51.00;38.25;;;;;;;;4978948;28;46310;-79
2021/09/21 05:53:16;;;;;;;;;41.25;34.50;;;;;;;;4977935;28;46817;-78
2021/09/21 05:55:42;;;;;;;;;50.50;37.00;;;;;;;;4975421;28;46679;-78
2021/09/21 05:58:07;;;;;;;;;49.67;35.33;;;;;;;;4980085;28;46478;-79
2021/09/21 06:00:32;;;;;;;;;46.67;34.00;;;;;;;;4981437;28;47192;-80
2021/09/21 06:02:58;;;;;;;;;41.50;32.75;;;;;;;;4972287;28;45758;-79
2021/09/21 06:05:23;;;;;;;;;44.75;33.50;;;;;;;;4976988;28;45713;-77
2021/09/21 06:10:24;;;;;;;;;45.25;37.00;;;;;;;;5022127;22;47295;-77
2021/09/21 06:12:52;;;;;;;;;50.75;37.00;;;;;;;;5002157;28;46284;-76
2021/09/21 06:15:19;;;;;;;;;48.00;35.25;;;;;;;;5005571;28;45883;-76
2021/09/21 06:17:44;;;;;;;;;50.75;37.50;;;;;;;;5007466;28;47821;-75
2021/09/21 06:20:10;;;;;;;;;45.75;36.75;;;;;;;;5007751;28;46311;-76
2021/09/21 06:22:40;;;;;;;;;48.25;33.75;;;;;;;;5011467;28;46318;-78
2021/09/21 06:25:06;;;;;;;;;37.00;28.25;;;;;;;;5013962;28;45776;-79
2021/09/21 06:27:32;;;;;;;;;40.50;34.00;;;;;;;;5017431;28;45586;-79
2021/09/21 06:29:57;;;;;;;;;43.25;34.25;;;;;;;;5023339;28;45931;-79
2021/09/21 06:32:22;;;;;;;;;45.00;35.33;;;;;;;;5018236;28;45524;-79
2021/09/21 06:34:47;;;;;;;;;40.67;31.67;;;;;;;;5007488;28;47181;-81
2021/09/21 06:37:14;;;;;;;;;46.50;36.00;;;;;;;;5025446;28;47461;-80
2021/09/21 06:39:39;;;;;;;;;43.75;34.25;;;;;;;;5024429;28;46676;-80
2021/09/21 06:42:04;;;;;;;;;32.75;28.00;;;;;;;;5024761;28;46359;-79
2021/09/21 06:44:29;;;;;;;;;37.33;33.67;;;;;;;;5022774;28;45524;-81
2021/09/21 06:46:55;;;;;;;;;43.00;30.33;;;;;;;;5027709;28;47426;-78
2021/09/21 06:49:20;;;;;;;;;40.00;31.67;;;;;;;;5025987;28;46917;-80
2021/09/21 06:51:45;;;;;;;;;40.33;31.67;;;;;;;;5020763;28;45692;-79
2021/09/21 06:54:10;;;;;;;;;43.33;29.33;;;;;;;;5022108;28;45603;-79
2021/09/21 06:56:36;;;;;;;;;32.25;28.50;;;;;;;;5024185;28;45632;-80
2021/09/21 06:59:01;;;;;;;;;36.25;29.25;;;;;;;;5027928;28;45934;-81
2021/09/21 07:01:28;;;;;;;;;33.33;26.00;;;;;;;;5025319;28;45681;-81
2021/09/21 07:03:54;;;;;;;;;37.25;28.25;;;;;;;;5018914;28;45585;-79
2021/09/21 07:06:19;;;;;;;;;28.00;23.25;;;;;;;;5023512;28;45989;-82
2021/09/21 07:08:44;;;;;;;;;35.75;30.25;;;;;;;;5027988;28;45574;-80
2021/09/21 07:11:09;;;;;;;;;32.50;28.25;;;;;;;;5024558;28;45767;-80
2021/09/21 07:13:35;;;;;;;;;29.75;21.50;;;;;;;;5019721;28;45646;-79
2021/09/21 07:16:00;;;;;;;;;34.33;26.33;;;;;;;;5020574;28;46778;-81
2021/09/21 07:18:25;;;;;;;;;28.50;25.00;;;;;;;;5023796;28;46268;-84
2021/09/21 07:20:50;;;;;;;;;27.67;21.00;;;;;;;;5020681;28;45967;-83
2021/09/21 07:23:18;;;;;;;;;28.75;23.75;;;;;;;;5023480;28;45848;-79
2021/09/21 07:25:43;;;;;;;;;29.50;24.75;;;;;;;;5023035;28;46289;-80
2021/09/21 07:28:08;;;;;;;;;28.50;23.00;;;;;;;;5022010;28;45626;-80
2021/09/21 07:30:34;;;;;;;;;26.67;21.00;;;;;;;;5018169;28;45872;-81
2021/09/21 07:33:00;;;;;;;;;33.75;26.00;;;;;;;;5017105;28;45877;-78
2021/09/21 07:35:26;;;;;;;;;30.50;23.75;;;;;;;;5020939;28;45907;-78
2021/09/21 07:37:51;;;;;;;;;26.50;20.00;;;;;;;;5025366;28;45602;-79
2021/09/21 07:40:19;;;;;;;;;30.00;23.25;;;;;;;;5019792;28;46464;-78
2021/09/21 07:42:44;;;;;;;;;16.75;9.50;;;;;;;;5021729;28;47619;-78
2021/09/21 07:45:10;;;;;;;;;30.00;26.25;;;;;;;;5017185;28;46304;-79
2021/09/21 07:47:36;;;;;;;;;27.25;25.75;;;;;;;;5021831;28;45462;-78
2021/09/21 07:50:01;;;;;;;;;25.50;22.75;;;;;;;;5020951;28;45807;-78
2021/09/21 07:52:27;;;;;;;;;24.50;21.25;;;;;;;;5019366;28;46137;-77
2021/09/21 07:54:52;;;;;;;;;35.75;27.75;;;;;;;;5020521;28;46231;-77
2021/09/21 07:57:20;;;;;;;;;29.75;24.25;;;;;;;;5012116;28;46263;-78
2021/09/21 07:59:45;;;;;;;;;21.25;16.75;;;;;;;;5022272;28;46158;-77
2021/09/21 08:02:12;;;;;;;;;23.25;16.75;;;;;;;;5024283;28;48091;-78
2021/09/21 08:04:38;;;;;;;;;21.25;18.50;;;;;;;;5019476;28;45662;-77
2021/09/21 08:07:06;;;;;;;;;30.50;23.00;;;;;;;;5014766;28;46302;-77
2021/09/21 08:09:31;;;;;;;;;23.75;21.75;;;;;;;;5014058;28;45640;-77
2021/09/21 08:11:56;;;;;;;;;20.50;16.25;;;;;;;;5015007;28;45766;-78
2021/09/21 08:14:22;;;;;;;;;23.75;19.00;;;;;;;;5016611;28;47511;-78
2021/09/21 08:16:47;;;;;;;;;18.75;17.75;;;;;;;;5018634;28;46180;-78
2021/09/21 08:19:12;;;;;;;;;18.67;13.67;;;;;;;;5028939;28;45777;-78
2021/09/21 08:21:37;;;;;;;;;16.50;14.50;;;;;;;;5018569;28;45656;-80
2021/09/21 08:24:03;;;;;;;;;18.50;12.50;;;;;;;;5019791;28;46925;-80
2021/09/21 08:26:28;;;;;;;;;15.50;13.75;;;;;;;;5022994;28;45455;-79
2021/09/21 08:28:53;;;;;;;;;15.33;11.00;;;;;;;;5025789;28;45731;-79
2021/09/21 08:33:54;;;;;;;;;14.50;11.25;;;;;;;;5370152;22;47209;-79
2021/09/21 08:36:19;;;;;;;;;17.50;12.00;;;;;;;;4982726;28;45537;-79
2021/09/21 08:38:44;;;;;;;;;13.50;11.75;;;;;;;;4978688;28;45742;-79
2021/09/21 08:41:10;;;;;;;;;15.75;14.00;;;;;;;;4998184;28;46412;-79
2021/09/21 08:43:35;;;;;;;;;18.25;14.00;;;;;;;;4972240;28;46538;-79
2021/09/21 08:46:00;;;;;;;;;16.00;13.00;;;;;;;;4977526;28;46230;-78
2021/09/21 08:48:25;;;;;;;;;20.50;14.75;;;;;;;;4984370;28;45587;-78
2021/09/21 08:50:51;;;;;;;;;13.00;12.00;;;;;;;;4981309;28;45687;-79
2021/09/21 08:53:17;;;;;;;;;23.25;18.00;;;;;;;;4981178;28;46495;-80
2021/09/21 08:55:42;;;;;;;;;14.00;12.50;;;;;;;;4982886;28;45624;-80
2021/09/21 08:58:08;;;;;;;;;16.00;11.00;;;;;;;;5037157;22;45883;-95
2021/09/21 09:00:35;;;;;;;;;13.75;12.25;;;;;;;;5002281;28;47373;-94
2021/09/21 09:03:03;;;;;;;;;15.25;13.50;;;;;;;;5015136;22;45784;-79
2021/09/21 09:05:40;;;;;;;;;14.00;11.50;;;;;;;;4979273;28;46168;-78
2021/09/21 09:08:05;;;;;;;;;14.50;11.75;;;;;;;;4991008;28;45573;-77
2021/09/21 09:10:30;;;;;;;;;14.33;12.33;;;;;;;;4986236;28;45726;-77
2021/09/21 09:12:56;;;;;;;;;13.33;10.67;;;;;;;;4979764;28;46331;-77
2021/09/21 09:15:22;;;;;;;;;16.00;13.67;;;;;;;;4983153;28;45600;-78
2021/09/21 09:17:55;;;;;;;;;14.75;12.25;;;;;;;;4984265;28;45689;-77
2021/09/21 09:20:32;;;;;;;;;18.75;12.00;;;;;;;;4987708;28;45601;-78
2021/09/21 09:22:58;;;;;;;;;14.75;13.50;;;;;;;;4973615;28;46832;-81
2021/09/21 09:25:26;;;;;;;;;14.00;12.50;;;;;;;;4967511;28;46953;-79
2021/09/21 09:27:52;;;;;;;;;15.25;13.75;;;;;;;;4949967;28;45768;-80
2021/09/21 09:30:22;;;;;;;;;21.50;16.75;;;;;;;;4982157;28;45994;-78
2021/09/21 09:32:50;;;;;;;;;17.75;14.00;;;;;;;;4983915;28;50652;-79
2021/09/21 09:35:26;;;;;;;;;15.25;14.00;;;;;;;;4983776;28;45632;-80
2021/09/21 09:37:52;;;;;;;;;19.00;15.00;;;;;;;;4992916;28;46347;-81
2021/09/21 09:40:17;;;;;;;;;15.50;14.25;;;;;;;;4980264;28;48933;-80
2021/09/21 09:42:43;;;;;;;;;18.50;13.75;;;;;;;;4993086;28;45620;-80
2021/09/21 09:45:10;;;;;;;;;19.25;15.00;;;;;;;;4984551;28;45680;-79
2021/09/21 09:47:48;;;;;;;;;19.75;16.50;;;;;;;;4978371;28;47204;-79
2021/09/21 09:50:14;;;;;;;;;21.75;17.50;;;;;;;;4981558;28;45470;-80
2021/09/21 09:52:39;;;;;;;;;19.75;16.00;;;;;;;;4987750;28;47464;-80
2021/09/21 09:55:05;;;;;;;;;17.25;14.25;;;;;;;;4983738;28;45525;-78
2021/09/21 09:57:30;;;;;;;;;13.00;11.00;;;;;;;;4981061;28;46236;-79
2021/09/21 09:59:56;;;;;;;;;19.75;17.75;;;;;;;;4980443;28;45655;-80
2021/09/21 10:02:22;;;;;;;;;15.50;9.50;;;;;;;;4988668;28;46229;-81
2021/09/21 10:04:47;;;;;;;;;18.75;16.25;;;;;;;;4984440;28;45576;-80
2021/09/21 10:07:12;;;;;;;;;17.00;17.00;;;;;;;;4979377;28;45636;-80
2021/09/21 10:09:38;;;;;;;;;21.50;17.00;;;;;;;;4985824;28;50972;-80
2021/09/21 10:12:03;;;;;;;;;24.67;17.00;;;;;;;;4976357;28;47845;-79
2021/09/21 10:14:29;;;;;;;;;21.25;19.00;;;;;;;;4983185;28;45614;-80
2021/09/21 10:16:58;;;;;;;;;18.00;16.00;;;;;;;;4985077;28;45617;-82
2021/09/21 10:19:24;;;;;;;;;24.25;18.00;;;;;;;;4983042;28;47747;-80
2021/09/21 10:21:56;;;;;;;;;21.50;16.00;;;;;;;;4979570;28;45982;-81
2021/09/21 10:24:32;;;;;;;;;20.00;14.00;;;;;;;;4980801;28;45694;-78
2021/09/21 10:27:02;;;;;;;;;22.75;19.75;;;;;;;;4982525;28;45514;-80
2021/09/21 10:29:30;;;;;;;;;23.00;18.50;;;;;;;;4978706;28;45657;-80
2021/09/21 10:31:56;;;;;;;;;24.25;20.25;;;;;;;;4977201;28;46847;-78
2021/09/21 10:34:22;;;;;;;;;19.25;18.50;;;;;;;;4975051;28;48267;-79
2021/09/21 10:36:51;;;;;;;;;21.50;19.00;;;;;;;;4982019;28;45550;-79
2021/09/21 10:39:18;;;;;;;;;19.50;18.00;;;;;;;;4976768;28;45725;-79
2021/09/21 10:41:56;;;;;;;;;16.75;12.50;;;;;;;;4973293;28;48939;-79
2021/09/21 10:44:22;;;;;;;;;26.25;20.00;;;;;;;;4980961;28;47892;-76
2021/09/21 10:46:54;;;;;;;;;18.50;15.50;;;;;;;;4973799;28;45565;-77
2021/09/21 10:49:35;;;;;;;;;29.25;20.50;;;;;;;;4977517;28;45655;-79
2021/09/21 10:52:05;;;;;;;;;22.00;19.00;;;;;;;;4973440;28;46570;-77
2021/09/21 10:54:35;;;;;;;;;20.75;18.00;;;;;;;;4976745;28;45560;-75
2021/09/21 10:57:38;;;;;;;;;18.25;16.50;;;;;;;;4970393;28;45807;-77
2021/09/21 11:00:14;;;;;;;;;23.00;18.50;;;;;;;;4970457;28;45682;-75
2021/09/21 11:02:46;;;;;;;;;23.75;18.25;;;;;;;;4972089;28;45909;-75
2021/09/21 11:05:16;;;;;;;;;18.00;16.50;;;;;;;;4960255;28;45794;-75
2021/09/21 11:07:56;;;;;;;;;22.75;19.25;;;;;;;;4953812;28;45321;-74
2021/09/21 11:10:24;;;;;;;;;24.25;20.00;;;;;;;;4969306;28;47438;-75
2021/09/21 11:12:50;;;;;;;;;20.75;18.50;;;;;;;;4968540;28;45939;-74
2021/09/21 11:15:16;;;;;;;;;22.00;19.75;;;;;;;;4952210;28;46853;-73
2021/09/21 11:17:41;;;;;;;;;18.75;17.00;;;;;;;;4967332;28;45942;-74
2021/09/21 11:20:07;;;;;;;;;19.00;17.50;;;;;;;;4976404;28;45740;-75
2021/09/21 11:22:32;;;;;;;;;16.75;15.75;;;;;;;;4969316;28;46082;-76
2021/09/21 11:25:08;;;;;;;;;25.00;19.00;;;;;;;;4960123;28;45629;-75
2021/09/21 11:27:34;;;;;;;;;21.25;16.00;;;;;;;;4970104;28;45871;-74
2021/09/21 11:30:02;;;;;;;;;26.00;19.00;;;;;;;;4967299;28;45655;-74
2021/09/21 11:32:28;;;;;;;;;20.75;19.50;;;;;;;;4958462;28;47363;-74
2021/09/21 11:35:00;;;;;;;;;20.25;14.00;;;;;;;;4979733;28;45973;-75
2021/09/21 11:37:26;;;;;;;;;19.00;18.25;;;;;;;;4980140;28;45552;-74
2021/09/21 11:39:51;;;;;;;;;25.00;20.00;;;;;;;;4974269;28;45285;-76
2021/09/21 11:42:21;;;;;;;;;26.67;20.67;;;;;;;;4978300;28;46030;-75
2021/09/21 11:44:46;;;;;;;;;24.25;18.75;;;;;;;;4974824;28;46814;-74
2021/09/21 11:47:11;;;;;;;;;20.50;17.25;;;;;;;;4981000;28;46388;-75
2021/09/21 11:49:53;;;;;;;;;23.75;17.50;;;;;;;;4970188;28;48676;-75
2021/09/21 11:52:20;;;;;;;;;21.50;16.75;;;;;;;;4968956;28;46338;-74
2021/09/21 11:57:21;;;;;;;;;17.00;14.75;;;;;;;;5672267;22;45759;-77
2021/09/21 11:59:47;;;;;;;;;16.50;13.25;;;;;;;;4960754;28;45696;-77
2021/09/21 12:02:21;;;;;;;;;22.75;20.00;;;;;;;;4958351;28;46066;-77
2021/09/21 12:04:46;;;;;;;;;24.00;20.75;;;;;;;;4958755;28;45087;-76
2021/09/21 12:07:12;;;;;;;;;24.00;20.25;;;;;;;;4957046;28;45674;-78
2021/09/21 12:09:37;;;;;;;;;18.00;16.25;;;;;;;;4964754;28;45513;-76
2021/09/21 12:12:11;;;;;;;;;27.50;21.75;;;;;;;;4962992;28;46428;-77
2021/09/21 12:14:36;;;;;;;;;25.00;22.00;;;;;;;;4964347;28;46126;-77
2021/09/21 12:17:03;;;;;;;;;24.00;21.00;;;;;;;;4967978;28;45726;-77
2021/09/21 12:19:28;;;;;;;;;28.75;26.00;;;;;;;;4965607;28;45790;-77
2021/09/21 12:21:58;;;;;;;;;26.67;21.33;;;;;;;;5032741;22;45759;-74
2021/09/21 12:24:32;;;;;;;;;26.00;24.00;;;;;;;;4957419;28;45558;-74
2021/09/21 12:27:01;;;;;;;;;28.75;23.75;;;;;;;;4954247;28;46285;-73
2021/09/21 12:29:30;;;;;;;;;22.50;20.50;;;;;;;;4958441;28;45949;-74
2021/09/21 12:31:56;;;;;;;;;26.00;20.75;;;;;;;;4956796;28;47104;-74
2021/09/21 12:34:30;;;;;;;;;29.75;22.75;;;;;;;;4957690;28;45659;-75
2021/09/21 12:36:58;;;;;;;;;26.25;19.00;;;;;;;;4959235;28;45753;-74
2021/09/21 12:39:23;;;;;;;;;21.75;21.00;;;;;;;;4956636;28;45554;-74
2021/09/21 12:41:50;;;;;;;;;27.50;22.75;;;;;;;;4959966;28;45570;-74
2021/09/21 12:44:17;;;;;;;;;20.75;19.50;;;;;;;;4959939;28;45535;-75
2021/09/21 12:46:43;;;;;;;;;23.75;20.50;;;;;;;;4951737;28;45487;-76
2021/09/21 12:49:10;;;;;;;;;30.00;23.00;;;;;;;;4953600;28;45625;-74
2021/09/21 12:51:37;;;;;;;;;22.25;18.00;;;;;;;;4957769;28;46213;-74
2021/09/21 12:54:05;;;;;;;;;19.25;18.25;;;;;;;;4955959;28;45677;-74
2021/09/21 12:56:32;;;;;;;;;22.25;18.75;;;;;;;;4969534;28;45637;-74
2021/09/21 12:59:06;;;;;;;;;23.50;19.00;;;;;;;;4964217;28;45589;-75
2021/09/21 13:01:31;;;;;;;;;26.50;19.75;;;;;;;;4955430;28;45742;-75
2021/09/21 13:03:56;;;;;;;;;30.67;24.33;;;;;;;;4957553;28;45794;-75
2021/09/21 13:06:21;;;;;;;;;25.50;20.75;;;;;;;;4957155;28;45744;-74
2021/09/21 13:08:49;;;;;;;;;47.50;33.00;;;;;;;;4960211;28;45329;-74
2021/09/21 13:11:14;;;;;;;;;27.25;24.00;;;;;;;;4957306;28;46257;-74
2021/09/21 13:13:40;;;;;;;;;27.75;22.75;;;;;;;;4960548;28;45960;-73
2021/09/21 13:16:07;;;;;;;;;21.75;19.00;;;;;;;;4966574;28;48077;-74
2021/09/21 13:18:32;;;;;;;;;21.75;20.75;;;;;;;;4967765;28;46617;-74
2021/09/21 13:20:57;;;;;;;;;25.33;20.00;;;;;;;;4967791;28;46047;-74
2021/09/21 13:23:23;;;;;;;;;30.00;23.25;;;;;;;;4967464;28;45880;-74
2021/09/21 13:25:48;;;;;;;;;25.50;20.50;;;;;;;;4954417;28;45783;-75
2021/09/21 13:28:16;;;;;;;;;31.67;23.00;;;;;;;;4962857;28;45787;-74
2021/09/21 13:30:44;;;;;;;;;30.25;23.50;;;;;;;;4963141;28;46357;-74
2021/09/21 13:33:11;;;;;;;;;23.00;21.75;;;;;;;;4961890;28;45535;-74
2021/09/21 13:35:36;;;;;;;;;21.00;18.75;;;;;;;;4956358;28;45873;-73
2021/09/21 13:38:02;;;;;;;;;23.25;18.00;;;;;;;;4963689;28;45576;-74
2021/09/21 13:40:27;;;;;;;;;30.67;21.00;;;;;;;;4968800;28;45996;-73
2021/09/21 13:42:54;;;;;;;;;24.00;21.00;;;;;;;;4959745;28;45609;-74
2021/09/21 13:45:22;;;;;;;;;22.75;19.00;;;;;;;;4956725;28;45678;-73
2021/09/21 13:47:47;;;;;;;;;29.25;22.75;;;;;;;;4955580;28;48191;-73
2021/09/21 13:50:13;;;;;;;;;23.00;20.00;;;;;;;;4956247;28;47139;-74
2021/09/21 13:52:38;;;;;;;;;22.50;21.75;;;;;;;;4956387;28;45688;-74
2021/09/21 13:55:03;;;;;;;;;23.25;18.25;;;;;;;;4956893;28;45855;-74
2021/09/21 13:57:29;;;;;;;;;18.75;18.25;;;;;;;;4951934;28;45818;-74
2021/09/21 13:59:54;;;;;;;;;27.00;21.75;;;;;;;;4955169;28;46096;-73
2021/09/21 14:02:19;;;;;;;;;20.75;19.75;;;;;;;;4954246;28;45477;-74
2021/09/21 14:04:45;;;;;;;;;21.00;20.25;;;;;;;;4950286;28;45780;-74
2021/09/21 14:07:11;;;;;;;;;26.00;21.00;;;;;;;;4956658;28;45538;-74
2021/09/21 14:09:36;;;;;;;;;19.25;17.50;;;;;;;;4955337;28;46270;-75
2021/09/21 14:12:01;;;;;;;;;21.00;17.50;;;;;;;;4955472;28;45513;-74
2021/09/21 14:14:27;;;;;;;;;23.75;20.25;;;;;;;;4956435;28;45615;-75
2021/09/21 14:16:52;;;;;;;;;18.00;16.25;;;;;;;;4958303;28;45773;-74
2021/09/21 14:19:17;;;;;;;;;22.00;17.00;;;;;;;;4960188;28;46266;-74
2021/09/21 14:21:43;;;;;;;;;24.00;22.25;;;;;;;;4954813;28;49613;-74
2021/09/21 14:24:08;;;;;;;;;23.00;18.00;;;;;;;;4955830;28;45578;-74
2021/09/21 14:26:33;;;;;;;;;21.00;18.50;;;;;;;;4956939;28;45568;-74
2021/09/21 14:28:59;;;;;;;;;26.75;20.50;;;;;;;;4956789;28;46227;-75
2021/09/21 14:31:25;;;;;;;;;24.75;20.25;;;;;;;;4957695;28;45582;-74
2021/09/21 14:33:50;;;;;;;;;23.50;21.50;;;;;;;;4956395;28;45823;-75